sensor_id;sensor_type;location;lat;lon;timestamp;pressure;altitude;pressure_sealevel;temperature;humidity
48824;BME280;34640;53.590;10.054;2022-12-10T00:01:51;100450.28;;;-0.20;100.00
48824;BME280;34640;53.590;10.054;2022-12-10T00:04:25;100448.00;;;-0.17;100.00
48824;BME280;34640;53.590;10.054;2022-12-10T00:06:58;100451.75;;;-0.22;100.00
48824;BME280;34640;53.590;10.054;2022-12-10T00:09:33;100451.47;;;-0.25;100.00
48824;BME280;34640;53.590;10.054;2022-12-10T00:12:08;100454.16;;;-0.24;100.00
48824;BME280;34640;53.590;10.054;2022-12-10T00:14:42;100454.78;;;-0.26;100.00
48824;BME280;34640;53.590;10.054;2022-12-10T00:17:15;100459.47;;;-0.31;100.00
48824;BME280;34640;53.590;10.054;2022-12-10T00:19:49;100464.44;;;-0.41;100.00
48824;BME280;34640;53.590;10.054;2022-12-10T00:22:23;100462.34;;;-0.37;100.00
48824;BME280;34640;53.590;10.054;2022-12-10T00:24:56;100456.03;;;-0.40;100.00
48824;BME280;34640;53.590;10.054;2022-12-10T00:27:31;100461.91;;;-0.41;100.00
48824;BME280;34640;53.590;10.054;2022-12-10T00:30:06;100461.59;;;-0.36;100.00
48824;BME280;34640;53.590;10.054;2022-12-10T00:32:40;100461.44;;;-0.37;100.00
48824;BME280;34640;53.590;10.054;2022-12-10T00:35:14;100460.69;;;-0.36;100.00
48824;BME280;34640;53.590;10.054;2022-12-10T00:37:48;100458.84;;;-0.28;100.00
48824;BME280;34640;53.590;10.054;2022-12-10T00:40:21;100462.78;;;-0.41;100.00
48824;BME280;34640;53.590;10.054;2022-12-10T00:42:56;100461.28;;;-0.39;100.00
48824;BME280;34640;53.590;10.054;2022-12-10T00:45:30;100463.25;;;-0.36;100.00
48824;BME280;34640;53.590;10.054;2022-12-10T00:48:04;100460.81;;;-0.35;100.00
48824;BME280;34640;53.590;10.054;2022-12-10T00:50:38;100462.91;;;-0.31;100.00
48824;BME280;34640;53.590;10.054;2022-12-10T00:53:12;100465.50;;;-0.39;100.00
48824;BME280;34640;53.590;10.054;2022-12-10T00:55:45;100471.38;;;-0.40;100.00
48824;BME280;34640;53.590;10.054;2022-12-10T00:58:21;100464.91;;;-0.37;100.00
48824;BME280;34640;53.590;10.054;2022-12-10T01:01:06;100471.22;;;-0.42;100.00
48824;BME280;34640;53.590;10.054;2022-12-10T01:03:40;100473.94;;;-0.40;100.00
48824;BME280;34640;53.590;10.054;2022-12-10T01:06:15;100485.06;;;-0.40;100.00
48824;BME280;34640;53.590;10.054;2022-12-10T01:08:50;100477.25;;;-0.41;100.00
48824;BME280;34640;53.590;10.054;2022-12-10T01:11:26;100478.28;;;-0.39;100.00
48824;BME280;34640;53.590;10.054;2022-12-10T01:14:03;100485.34;;;-0.37;100.00
48824;BME280;34640;53.590;10.054;2022-12-10T01:16:37;100485.81;;;-0.41;100.00
48824;BME280;34640;53.590;10.054;2022-12-10T01:19:11;100486.25;;;-0.45;100.00
48824;BME280;34640;53.590;10.054;2022-12-10T01:21:45;100484.59;;;-0.44;100.00
48824;BME280;34640;53.590;10.054;2022-12-10T01:24:18;100473.63;;;-0.43;100.00
48824;BME280;34640;53.590;10.054;2022-12-10T01:26:52;100495.28;;;-0.40;100.00
48824;BME280;34640;53.590;10.054;2022-12-10T01:29:28;100481.44;;;-0.33;100.00
48824;BME280;34640;53.590;10.054;2022-12-10T01:32:02;100478.56;;;-0.27;100.00
48824;BME280;34640;53.590;10.054;2022-12-10T01:34:36;100483.69;;;-0.27;100.00
48824;BME280;34640;53.590;10.054;2022-12-10T01:37:10;100482.47;;;-0.31;100.00
48824;BME280;34640;53.590;10.054;2022-12-10T01:39:44;100478.88;;;-0.33;100.00
48824;BME280;34640;53.590;10.054;2022-12-10T01:42:18;100488.03;;;-0.26;100.00
48824;BME280;34640;53.590;10.054;2022-12-10T01:45:06;100489.56;;;-0.28;100.00
48824;BME280;34640;53.590;10.054;2022-12-10T01:47:40;100488.66;;;-0.38;100.00
48824;BME280;34640;53.590;10.054;2022-12-10T01:50:14;100488.38;;;-0.41;100.00
48824;BME280;34640;53.590;10.054;2022-12-10T01:52:48;100494.38;;;-0.40;100.00
48824;BME280;34640;53.590;10.054;2022-12-10T01:55:40;100499.22;;;-0.43;100.00
48824;BME280;34640;53.590;10.054;2022-12-10T01:58:16;100498.47;;;-0.42;100.00
48824;BME280;34640;53.590;10.054;2022-12-10T02:01:03;100498.47;;;-0.42;100.00
48824;BME280;34640;53.590;10.054;2022-12-10T02:03:48;100498.28;;;-0.44;100.00
48824;BME280;34640;53.590;10.054;2022-12-10T02:06:42;100496.47;;;-0.45;100.00
48824;BME280;34640;53.590;10.054;2022-12-10T02:09:23;100504.44;;;-0.50;100.00
48824;BME280;34640;53.590;10.054;2022-12-10T02:12:05;100508.97;;;-0.48;100.00
48824;BME280;34640;53.590;10.054;2022-12-10T02:14:51;100505.78;;;-0.45;100.00
48824;BME280;34640;53.590;10.054;2022-12-10T02:17:34;100505.78;;;-0.45;100.00
48824;BME280;34640;53.590;10.054;2022-12-10T02:20:13;100506.88;;;-0.43;100.00
48824;BME280;34640;53.590;10.054;2022-12-10T02:22:50;100503.88;;;-0.39;100.00
48824;BME280;34640;53.590;10.054;2022-12-10T02:25:34;100506.13;;;-0.42;100.00
48824;BME280;34640;53.590;10.054;2022-12-10T02:28:13;100513.63;;;-0.44;100.00
48824;BME280;34640;53.590;10.054;2022-12-10T02:30:52;100511.38;;;-0.41;100.00
48824;BME280;34640;53.590;10.054;2022-12-10T02:33:29;100502.66;;;-0.34;100.00
48824;BME280;34640;53.590;10.054;2022-12-10T02:36:05;100505.22;;;-0.34;100.00
48824;BME280;34640;53.590;10.054;2022-12-10T02:38:41;100505.22;;;-0.34;100.00
48824;BME280;34640;53.590;10.054;2022-12-10T02:41:22;100510.03;;;-0.37;100.00
48824;BME280;34640;53.590;10.054;2022-12-10T02:43:58;100514.69;;;-0.33;100.00
48824;BME280;34640;53.590;10.054;2022-12-10T02:46:37;100517.09;;;-0.26;100.00
48824;BME280;34640;53.590;10.054;2022-12-10T02:49:13;100520.09;;;-0.30;100.00
48824;BME280;34640;53.590;10.054;2022-12-10T02:51:47;100516.31;;;-0.25;100.00
48824;BME280;34640;53.590;10.054;2022-12-10T02:54:40;100515.28;;;-0.27;100.00
48824;BME280;34640;53.590;10.054;2022-12-10T02:57:29;100512.28;;;-0.32;100.00
48824;BME280;34640;53.590;10.054;2022-12-10T03:00:10;100518.00;;;-0.34;100.00
48824;BME280;34640;53.590;10.054;2022-12-10T03:03:19;100522.50;;;-0.32;100.00
48824;BME280;34640;53.590;10.054;2022-12-10T03:06:00;100518.59;;;-0.28;100.00
48824;BME280;34640;53.590;10.054;2022-12-10T03:08:39;100521.91;;;-0.29;100.00
48824;BME280;34640;53.590;10.054;2022-12-10T03:11:17;100517.97;;;-0.25;100.00
48824;BME280;34640;53.590;10.054;2022-12-10T03:13:55;100513.47;;;-0.28;100.00
48824;BME280;34640;53.590;10.054;2022-12-10T03:16:35;100517.38;;;-0.23;100.00
48824;BME280;34640;53.590;10.054;2022-12-10T03:19:13;100524.00;;;-0.25;100.00
48824;BME280;34640;53.590;10.054;2022-12-10T03:21:50;100527.59;;;-0.23;100.00
48824;BME280;34640;53.590;10.054;2022-12-10T03:24:26;100521.31;;;-0.18;100.00
48824;BME280;34640;53.590;10.054;2022-12-10T03:27:03;100520.25;;;-0.20;100.00
48824;BME280;34640;53.590;10.054;2022-12-10T03:29:41;100517.09;;;-0.17;100.00
48824;BME280;34640;53.590;10.054;2022-12-10T03:32:20;100513.94;;;-0.15;100.00
48824;BME280;34640;53.590;10.054;2022-12-10T03:34:57;100522.38;;;-0.16;100.00
48824;BME280;34640;53.590;10.054;2022-12-10T03:37:32;100522.81;;;-0.20;100.00
48824;BME280;34640;53.590;10.054;2022-12-10T03:40:08;100517.09;;;-0.17;100.00
48824;BME280;34640;53.590;10.054;2022-12-10T03:42:43;100525.66;;;-0.17;100.00
48824;BME280;34640;53.590;10.054;2022-12-10T03:45:17;100525.22;;;-0.21;100.00
48824;BME280;34640;53.590;10.054;2022-12-10T03:47:50;100530.50;;;-0.20;100.00
48824;BME280;34640;53.590;10.054;2022-12-10T03:50:25;100524.00;;;-0.16;100.00
48824;BME280;34640;53.590;10.054;2022-12-10T03:52:59;100529.59;;;-0.20;100.00
48824;BME280;34640;53.590;10.054;2022-12-10T03:55:32;100531.69;;;-0.16;100.00
48824;BME280;34640;53.590;10.054;2022-12-10T03:58:06;100535.44;;;-0.13;100.00
48824;BME280;34640;53.590;10.054;2022-12-10T04:00:40;100527.59;;;-0.06;100.00
48824;BME280;34640;53.590;10.054;2022-12-10T04:03:13;100524.13;;;-0.06;100.00
48824;BME280;34640;53.590;10.054;2022-12-10T04:05:48;100522.94;;;-0.10;100.00
48824;BME280;34640;53.590;10.054;2022-12-10T04:08:22;100531.66;;;-0.08;100.00
48824;BME280;34640;53.590;10.054;2022-12-10T04:11:02;100525.34;;;-0.11;100.00
48824;BME280;34640;53.590;10.054;2022-12-10T04:13:37;100524.16;;;-0.15;100.00
48824;BME280;34640;53.590;10.054;2022-12-10T04:16:29;100515.88;;;-0.12;100.00
48824;BME280;34640;53.590;10.054;2022-12-10T04:19:06;100522.81;;;-0.11;100.00
48824;BME280;34640;53.590;10.054;2022-12-10T04:21:42;100513.59;;;-0.01;100.00
48824;BME280;34640;53.590;10.054;2022-12-10T04:24:34;100526.69;;;-0.06;100.00
48824;BME280;34640;53.590;10.054;2022-12-10T04:27:27;100519.50;;;-0.10;100.00
48824;BME280;34640;53.590;10.054;2022-12-10T04:30:03;100513.91;;;-0.06;100.00
48824;BME280;34640;53.590;10.054;2022-12-10T04:32:38;100517.50;;;-0.04;100.00
48824;BME280;34640;53.590;10.054;2022-12-10T04:35:12;100514.34;;;-0.02;100.00
48824;BME280;34640;53.590;10.054;2022-12-10T04:37:47;100520.69;;;0.02;100.00
48824;BME280;34640;53.590;10.054;2022-12-10T04:40:20;100515.09;;;0.06;100.00
48824;BME280;34640;53.590;10.054;2022-12-10T04:42:54;100523.53;;;-0.04;100.00
48824;BME280;34640;53.590;10.054;2022-12-10T04:45:28;100515.72;;;-0.05;100.00
48824;BME280;34640;53.590;10.054;2022-12-10T04:48:01;100520.69;;;-0.07;100.00
48824;BME280;34640;53.590;10.054;2022-12-10T04:50:35;100524.75;;;0.00;100.00
48824;BME280;34640;53.590;10.054;2022-12-10T04:53:10;100523.41;;;0.04;100.00
48824;BME280;34640;53.590;10.054;2022-12-10T04:55:44;100521.75;;;0.04;100.00
48824;BME280;34640;53.590;10.054;2022-12-10T04:58:17;100531.66;;;0.10;100.00
48824;BME280;34640;53.590;10.054;2022-12-10T05:00:51;100527.00;;;0.06;100.00
48824;BME280;34640;53.590;10.054;2022-12-10T05:03:24;100522.94;;;0.08;100.00
48824;BME280;34640;53.590;10.054;2022-12-10T05:06:00;100529.25;;;0.11;100.00
48824;BME280;34640;53.590;10.054;2022-12-10T05:08:36;100529.53;;;0.14;100.00
48824;BME280;34640;53.590;10.054;2022-12-10T05:11:12;100529.56;;;0.06;100.00
48824;BME280;34640;53.590;10.054;2022-12-10T05:13:46;100521.84;;;0.14;100.00
48824;BME280;34640;53.590;10.054;2022-12-10T05:16:21;100529.06;;;0.18;100.00
48824;BME280;34640;53.590;10.054;2022-12-10T05:18:56;100531.81;;;0.11;100.00
48824;BME280;34640;53.590;10.054;2022-12-10T05:21:30;100533.13;;;0.16;100.00
48824;BME280;34640;53.590;10.054;2022-12-10T05:24:19;100534.22;;;0.10;100.00
48824;BME280;34640;53.590;10.054;2022-12-10T05:26:53;100535.72;;;0.08;100.00
48824;BME280;34640;53.590;10.054;2022-12-10T05:29:26;100531.97;;;0.04;100.00
48824;BME280;34640;53.590;10.054;2022-12-10T05:32:01;100527.31;;;0.00;100.00
48824;BME280;34640;53.590;10.054;2022-12-10T05:34:35;100531.69;;;0.01;100.00
48824;BME280;34640;53.590;10.054;2022-12-10T05:37:09;100530.44;;;-0.03;100.00
48824;BME280;34640;53.590;10.054;2022-12-10T05:39:44;100529.41;;;0.04;100.00
48824;BME280;34640;53.590;10.054;2022-12-10T05:42:18;100530.31;;;-0.04;100.00
48824;BME280;34640;53.590;10.054;2022-12-10T05:44:51;100532.13;;;-0.03;100.00
48824;BME280;34640;53.590;10.054;2022-12-10T05:47:25;100537.97;;;-0.04;100.00
48824;BME280;34640;53.590;10.054;2022-12-10T05:49:58;100537.84;;;-0.06;100.00
48824;BME280;34640;53.590;10.054;2022-12-10T05:52:32;100532.25;;;-0.02;100.00
48824;BME280;34640;53.590;10.054;2022-12-10T05:55:08;100535.44;;;-0.04;100.00
48824;BME280;34640;53.590;10.054;2022-12-10T05:57:42;100534.25;;;0.01;100.00
48824;BME280;34640;53.590;10.054;2022-12-10T06:00:16;100530.47;;;0.06;100.00
48824;BME280;34640;53.590;10.054;2022-12-10T06:02:50;100535.72;;;0.08;100.00
48824;BME280;34640;53.590;10.054;2022-12-10T06:05:24;100535.91;;;0.01;100.00
48824;BME280;34640;53.590;10.054;2022-12-10T06:07:58;100548.22;;;-0.04;100.00
48824;BME280;34640;53.590;10.054;2022-12-10T06:10:33;100537.09;;;-0.05;100.00
48824;BME280;34640;53.590;10.054;2022-12-10T06:13:08;100550.34;;;-0.09;100.00
48824;BME280;34640;53.590;10.054;2022-12-10T06:15:43;100552.31;;;-0.15;100.00
48824;BME280;34640;53.590;10.054;2022-12-10T06:18:16;100555.31;;;-0.10;100.00
48824;BME280;34640;53.590;10.054;2022-12-10T06:20:50;100557.13;;;-0.09;100.00
48824;BME280;34640;53.590;10.054;2022-12-10T06:23:24;100551.56;;;-0.14;100.00
48824;BME280;34640;53.590;10.054;2022-12-10T06:25:59;100561.50;;;-0.17;100.00
48824;BME280;34640;53.590;10.054;2022-12-10T06:28:36;100565.53;;;-0.10;100.00
48824;BME280;34640;53.590;10.054;2022-12-10T06:31:10;100566.44;;;-0.01;100.00
48824;BME280;34640;53.590;10.054;2022-12-10T06:33:45;100563.44;;;-0.06;100.00
48824;BME280;34640;53.590;10.054;2022-12-10T06:36:18;100558.78;;;-0.10;100.00
48824;BME280;34640;53.590;10.054;2022-12-10T06:38:52;100555.31;;;-0.19;100.00
48824;BME280;34640;53.590;10.054;2022-12-10T06:41:27;100562.53;;;-0.15;100.00
48824;BME280;34640;53.590;10.054;2022-12-10T06:44:01;100562.22;;;-0.26;100.00
48824;BME280;34640;53.590;10.054;2022-12-10T06:46:35;100562.84;;;-0.20;100.00
48824;BME280;34640;53.590;10.054;2022-12-10T06:49:08;100562.53;;;-0.23;100.00
48824;BME280;34640;53.590;10.054;2022-12-10T06:51:42;100563.13;;;-0.26;100.00
48824;BME280;34640;53.590;10.054;2022-12-10T06:54:16;100564.19;;;-0.24;100.00
48824;BME280;34640;53.590;10.054;2022-12-10T06:56:51;100561.78;;;-0.31;100.00
48824;BME280;34640;53.590;10.054;2022-12-10T06:59:25;100569.59;;;-0.29;100.00
48824;BME280;34640;53.590;10.054;2022-12-10T07:01:58;100569.28;;;-0.24;100.00
48824;BME280;34640;53.590;10.054;2022-12-10T07:04:33;100576.81;;;-0.25;100.00
48824;BME280;34640;53.590;10.054;2022-12-10T07:07:06;100574.91;;;-0.19;100.00
48824;BME280;34640;53.590;10.054;2022-12-10T07:09:41;100580.13;;;-0.26;100.00
48824;BME280;34640;53.590;10.054;2022-12-10T07:12:16;100594.59;;;-0.27;100.00
48824;BME280;34640;53.590;10.054;2022-12-10T07:14:50;100589.75;;;-0.24;100.00
48824;BME280;34640;53.590;10.054;2022-12-10T07:17:23;100592.31;;;-0.24;100.00
48824;BME280;34640;53.590;10.054;2022-12-10T07:19:57;100603.16;;;-0.26;100.00
48824;BME280;34640;53.590;10.054;2022-12-10T07:22:30;100604.22;;;-0.33;100.00
48824;BME280;34640;53.590;10.054;2022-12-10T07:25:04;100607.69;;;-0.33;100.00
48824;BME280;34640;53.590;10.054;2022-12-10T07:27:40;100604.06;;;-0.26;100.00
48824;BME280;34640;53.590;10.054;2022-12-10T07:30:13;100606.31;;;-0.29;100.00
48824;BME280;34640;53.590;10.054;2022-12-10T07:32:47;100609.06;;;-0.19;100.00
48824;BME280;34640;53.590;10.054;2022-12-10T07:35:21;100611.13;;;-0.23;100.00
48824;BME280;34640;53.590;10.054;2022-12-10T07:37:54;100612.66;;;-0.34;100.00
48824;BME280;34640;53.590;10.054;2022-12-10T07:40:28;100615.66;;;-0.38;100.00
48824;BME280;34640;53.590;10.054;2022-12-10T07:43:03;100621.22;;;-0.42;100.00
48824;BME280;34640;53.590;10.054;2022-12-10T07:45:37;100623.31;;;-0.38;100.00
48824;BME280;34640;53.590;10.054;2022-12-10T07:48:10;100630.09;;;-0.30;100.00
48824;BME280;34640;53.590;10.054;2022-12-10T07:50:44;100635.06;;;-0.32;100.00
48824;BME280;34640;53.590;10.054;2022-12-10T07:53:17;100634.47;;;-0.29;100.00
48824;BME280;34640;53.590;10.054;2022-12-10T07:55:51;100641.69;;;-0.34;100.00
48824;BME280;34640;53.590;10.054;2022-12-10T07:58:26;100633.09;;;-0.43;100.00
48824;BME280;34640;53.590;10.054;2022-12-10T08:01:06;100633.25;;;-0.41;100.00
48824;BME280;34640;53.590;10.054;2022-12-10T08:03:40;100635.31;;;-0.46;100.00
48824;BME280;34640;53.590;10.054;2022-12-10T08:06:15;100636.97;;;-0.46;100.00
48824;BME280;34640;53.590;10.054;2022-12-10T08:08:50;100643.34;;;-0.43;100.00
48824;BME280;34640;53.590;10.054;2022-12-10T08:11:24;100643.75;;;-0.47;100.00
48824;BME280;34640;53.590;10.054;2022-12-10T08:14:00;100642.25;;;-0.53;100.00
48824;BME280;34640;53.590;10.054;2022-12-10T08:16:34;100637.56;;;-0.57;100.00
48824;BME280;34640;53.590;10.054;2022-12-10T08:19:08;100639.69;;;-0.53;100.00
48824;BME280;34640;53.590;10.054;2022-12-10T08:21:48;100646.44;;;-0.54;100.00
48824;BME280;34640;53.590;10.054;2022-12-10T08:24:21;100645.25;;;-0.57;100.00
48824;BME280;34640;53.590;10.054;2022-12-10T08:26:55;100641.50;;;-0.52;100.00
48824;BME280;34640;53.590;10.054;2022-12-10T08:29:30;100643.75;;;-0.55;100.00
48824;BME280;34640;53.590;10.054;2022-12-10T08:32:04;100641.03;;;-0.57;100.00
48824;BME280;34640;53.590;10.054;2022-12-10T08:34:37;100653.34;;;-0.62;100.00
48824;BME280;34640;53.590;10.054;2022-12-10T08:37:11;100654.25;;;-0.61;100.00
48824;BME280;34640;53.590;10.054;2022-12-10T08:39:45;100649.00;;;-0.54;100.00
48824;BME280;34640;53.590;10.054;2022-12-10T08:42:18;100654.28;;;-0.44;100.00
48824;BME280;34640;53.590;10.054;2022-12-10T08:44:53;100656.22;;;-0.50;100.00
48824;BME280;34640;53.590;10.054;2022-12-10T08:47:27;100660.00;;;-0.46;100.00
48824;BME280;34640;53.590;10.054;2022-12-10T08:50:00;100666.66;;;-0.40;100.00
48824;BME280;34640;53.590;10.054;2022-12-10T08:52:34;100664.34;;;-0.54;100.00
48824;BME280;34640;53.590;10.054;2022-12-10T08:55:08;100672.19;;;-0.52;100.00
48824;BME280;34640;53.590;10.054;2022-12-10T08:57:42;100667.72;;;-0.38;100.00
48824;BME280;34640;53.590;10.054;2022-12-10T09:00:17;100678.97;;;-0.44;100.00
48824;BME280;34640;53.590;10.054;2022-12-10T09:02:51;100678.50;;;-0.49;100.00
48824;BME280;34640;53.590;10.054;2022-12-10T09:05:25;100670.94;;;-0.65;100.00
48824;BME280;34640;53.590;10.054;2022-12-10T09:07:59;100677.53;;;-0.67;100.00
48824;BME280;34640;53.590;10.054;2022-12-10T09:10:33;100675.88;;;-0.66;100.00
48824;BME280;34640;53.590;10.054;2022-12-10T09:13:09;100682.53;;;-0.59;100.00
48824;BME280;34640;53.590;10.054;2022-12-10T09:15:50;100688.72;;;-0.57;100.00
48824;BME280;34640;53.590;10.054;2022-12-10T09:18:24;100692.19;;;-0.48;100.00
48824;BME280;34640;53.590;10.054;2022-12-10T09:20:58;100688.41;;;-0.52;100.00
48824;BME280;34640;53.590;10.054;2022-12-10T09:23:31;100699.56;;;-0.51;100.00
48824;BME280;34640;53.590;10.054;2022-12-10T09:26:06;100704.66;;;-0.51;100.00
48824;BME280;34640;53.590;10.054;2022-12-10T09:28:41;100709.31;;;-0.56;100.00
48824;BME280;34640;53.590;10.054;2022-12-10T09:31:19;100713.84;;;-0.53;100.00
48824;BME280;34640;53.590;10.054;2022-12-10T09:33:53;100714.59;;;-0.46;100.00
48824;BME280;34640;53.590;10.054;2022-12-10T09:36:27;100710.09;;;-0.48;100.00
48824;BME280;34640;53.590;10.054;2022-12-10T09:39:05;100715.72;;;-0.68;100.00
48824;BME280;34640;53.590;10.054;2022-12-10T09:41:56;100711.34;;;-0.69;100.00
48824;BME280;34640;53.590;10.054;2022-12-10T09:44:43;100710.63;;;-0.68;100.00
48824;BME280;34640;53.590;10.054;2022-12-10T09:47:25;100721.66;;;-0.60;100.00
48824;BME280;34640;53.590;10.054;2022-12-10T09:50:11;100716.06;;;-0.65;100.00
48824;BME280;34640;53.590;10.054;2022-12-10T09:52:49;100705.56;;;-0.59;100.00
48824;BME280;34640;53.590;10.054;2022-12-10T09:55:31;100705.09;;;-0.64;100.00
48824;BME280;34640;53.590;10.054;2022-12-10T09:58:08;100702.09;;;-0.60;100.00
48824;BME280;34640;53.590;10.054;2022-12-10T10:00:50;100704.97;;;-0.57;100.00
48824;BME280;34640;53.590;10.054;2022-12-10T10:03:28;100707.81;;;-0.63;100.00
48824;BME280;34640;53.590;10.054;2022-12-10T10:06:05;100706.38;;;-0.76;100.00
48824;BME280;34640;53.590;10.054;2022-12-10T10:08:45;100703.50;;;-0.79;100.00
48824;BME280;34640;53.590;10.054;2022-12-10T10:11:21;100703.06;;;-0.75;100.00
48824;BME280;34640;53.590;10.054;2022-12-10T10:13:58;100702.59;;;-0.80;100.00
48824;BME280;34640;53.590;10.054;2022-12-10T10:16:35;100699.31;;;-0.79;100.00
48824;BME280;34640;53.590;10.054;2022-12-10T10:19:14;100695.72;;;-0.72;100.00
48824;BME280;34640;53.590;10.054;2022-12-10T10:21:50;100696.53;;;-0.65;100.00
48824;BME280;34640;53.590;10.054;2022-12-10T10:24:26;100695.78;;;-0.55;100.00
48824;BME280;34640;53.590;10.054;2022-12-10T10:27:12;100705.28;;;-0.45;100.00
48824;BME280;34640;53.590;10.054;2022-12-10T10:29:48;100708.28;;;-0.58;100.00
48824;BME280;34640;53.590;10.054;2022-12-10T10:32:45;100704.81;;;-0.50;100.00
48824;BME280;34640;53.590;10.054;2022-12-10T10:35:30;100707.84;;;-0.45;100.00
48824;BME280;34640;53.590;10.054;2022-12-10T10:38:07;100703.91;;;-0.59;100.00
48824;BME280;34640;53.590;10.054;2022-12-10T10:40:43;100701.97;;;-0.53;100.00
48824;BME280;34640;53.590;10.054;2022-12-10T10:43:21;100707.97;;;-0.61;100.00
48824;BME280;34640;53.590;10.054;2022-12-10T10:45:58;100711.41;;;-0.60;100.00
48824;BME280;34640;53.590;10.054;2022-12-10T10:48:33;100707.22;;;-0.60;100.00
48824;BME280;34640;53.590;10.054;2022-12-10T10:51:16;100698.38;;;-0.46;100.00
48824;BME280;34640;53.590;10.054;2022-12-10T10:53:53;100708.63;;;-0.38;100.00
48824;BME280;34640;53.590;10.054;2022-12-10T10:56:29;100710.28;;;-0.38;100.00
48824;BME280;34640;53.590;10.054;2022-12-10T10:59:15;100710.75;;;-0.42;100.00
48824;BME280;34640;53.590;10.054;2022-12-10T11:02:02;100710.25;;;-0.47;100.00
48824;BME280;34640;53.590;10.054;2022-12-10T11:04:45;100703.31;;;-0.48;100.00
48824;BME280;34640;53.590;10.054;2022-12-10T11:07:24;100707.53;;;-0.48;100.00
48824;BME280;34640;53.590;10.054;2022-12-10T11:09:59;100704.22;;;-0.56;100.00
48824;BME280;34640;53.590;10.054;2022-12-10T11:12:36;100710.28;;;-0.38;100.00
48824;BME280;34640;53.590;10.054;2022-12-10T11:15:32;100701.25;;;-0.43;100.00
48824;BME280;34640;53.590;10.054;2022-12-10T11:18:23;100706.84;;;-0.39;100.00
48824;BME280;34640;53.590;10.054;2022-12-10T11:21:01;100697.63;;;-0.45;100.00
48824;BME280;34640;53.590;10.054;2022-12-10T11:23:40;100695.25;;;-0.35;100.00
48824;BME280;34640;53.590;10.054;2022-12-10T11:29:40;100691.94;;;-0.34;100.00
48824;BME280;34640;53.590;10.054;2022-12-10T11:32:26;100687.88;;;-0.32;100.00
48824;BME280;34640;53.590;10.054;2022-12-10T11:35:11;100683.38;;;-0.26;100.00
48824;BME280;34640;53.590;10.054;2022-12-10T11:37:51;100692.84;;;-0.34;100.00
48824;BME280;34640;53.590;10.054;2022-12-10T11:40:38;100692.38;;;-0.38;100.00
48824;BME280;34640;53.590;10.054;2022-12-10T11:43:37;100688.94;;;-0.30;100.00
48824;BME280;34640;53.590;10.054;2022-12-10T11:46:29;100690.28;;;-0.25;100.00
48824;BME280;34640;53.590;10.054;2022-12-10T11:49:15;100688.19;;;-0.29;100.00
48824;BME280;34640;53.590;10.054;2022-12-10T11:51:59;100687.75;;;-0.25;100.00
48824;BME280;34640;53.590;10.054;2022-12-10T11:54:56;100679.91;;;-0.26;100.00
48824;BME280;34640;53.590;10.054;2022-12-10T11:57:44;100681.13;;;-0.23;100.00
48824;BME280;34640;53.590;10.054;2022-12-10T12:00:21;100679.00;;;-0.27;100.00
48824;BME280;34640;53.590;10.054;2022-12-10T12:03:10;100687.75;;;-0.25;100.00
48824;BME280;34640;53.590;10.054;2022-12-10T12:06:00;100675.69;;;-0.26;100.00
48824;BME280;34640;53.590;10.054;2022-12-10T12:08:48;100675.84;;;-0.24;100.00
48824;BME280;34640;53.590;10.054;2022-12-10T12:11:31;100680.56;;;-0.20;100.00
48824;BME280;34640;53.590;10.054;2022-12-10T12:14:16;100678.91;;;-0.20;100.00
48824;BME280;34640;53.590;10.054;2022-12-10T12:17:00;100688.97;;;-0.13;100.00
48824;BME280;34640;53.590;10.054;2022-12-10T12:19:37;100675.72;;;-0.17;100.00
48824;BME280;34640;53.590;10.054;2022-12-10T12:22:15;100689.44;;;-0.17;100.00
48824;BME280;34640;53.590;10.054;2022-12-10T12:24:50;100680.69;;;-0.10;100.00
48824;BME280;34640;53.590;10.054;2022-12-10T12:27:31;100682.50;;;-0.09;100.00
48824;BME280;34640;53.590;10.054;2022-12-10T12:30:14;100681.59;;;-0.18;100.00
48824;BME280;34640;53.590;10.054;2022-12-10T12:32:55;100676.63;;;-0.17;100.00
48824;BME280;34640;53.590;10.054;2022-12-10T12:35:37;100677.53;;;-0.16;100.00
48824;BME280;34640;53.590;10.054;2022-12-10T12:38:26;100683.56;;;-0.16;100.00
48824;BME280;34640;53.590;10.054;2022-12-10T12:41:04;100679.03;;;-0.18;100.00
48824;BME280;34640;53.590;10.054;2022-12-10T12:43:40;100679.47;;;-0.22;100.00
48824;BME280;34640;53.590;10.054;2022-12-10T12:46:20;100688.63;;;-0.33;100.00
48824;BME280;34640;53.590;10.054;2022-12-10T12:48:57;100682.75;;;-0.32;100.00
48824;BME280;34640;53.590;10.054;2022-12-10T12:51:38;100681.25;;;-0.39;100.00
48824;BME280;34640;53.590;10.054;2022-12-10T12:54:12;100679.00;;;-0.36;100.00
48824;BME280;34640;53.590;10.054;2022-12-10T12:57:05;100677.19;;;-0.37;100.00
48824;BME280;34640;53.590;10.054;2022-12-10T12:59:50;100687.13;;;-0.31;100.00
48824;BME280;34640;53.590;10.054;2022-12-10T13:02:45;100684.13;;;-0.27;100.00
48824;BME280;34640;53.590;10.054;2022-12-10T13:05:25;100675.69;;;-0.26;100.00
48824;BME280;34640;53.590;10.054;2022-12-10T13:08:30;100683.56;;;-0.16;100.00
48824;BME280;34640;53.590;10.054;2022-12-10T13:11:24;100684.56;;;-0.31;100.00
48824;BME280;34640;53.590;10.054;2022-12-10T13:14:31;100687.28;;;-0.29;100.00
48824;BME280;34640;53.590;10.054;2022-12-10T13:17:30;100694.34;;;-0.36;100.00
48824;BME280;34640;53.590;10.054;2022-12-10T13:20:29;100688.19;;;-0.29;100.00
48824;BME280;34640;53.590;10.054;2022-12-10T13:23:04;100690.75;;;-0.29;100.00
48824;BME280;34640;53.590;10.054;2022-12-10T13:25:55;100700.38;;;-0.26;100.00
48824;BME280;34640;53.590;10.054;2022-12-10T13:28:40;100698.97;;;-0.49;100.00